sensor_id;sensor_type;location;lat;lon;timestamp;pressure;altitude;pressure_sealevel;temperature;humidity
67109;BME280;54027;50.786;7.058;2024-02-28T00:01:38;101453.28;;;4.70;100.00
67109;BME280;54027;50.786;7.058;2024-02-28T00:04:03;101455.94;;;4.75;100.00
67109;BME280;54027;50.786;7.058;2024-02-28T00:06:29;101446.50;;;4.72;100.00
67109;BME280;54027;50.786;7.058;2024-02-28T00:08:54;101443.94;;;4.72;100.00
67109;BME280;54027;50.786;7.058;2024-02-28T00:11:20;101443.06;;;4.72;100.00
67109;BME280;54027;50.786;7.058;2024-02-28T00:13:45;101445.59;;;4.70;100.00
67109;BME280;54027;50.786;7.058;2024-02-28T00:16:11;101449.03;;;4.72;100.00
67109;BME280;54027;50.786;7.058;2024-02-28T00:18:37;101448.06;;;4.67;100.00
67109;BME280;54027;50.786;7.058;2024-02-28T00:21:02;101450.59;;;4.65;100.00
67109;BME280;54027;50.786;7.058;2024-02-28T00:23:29;101445.63;;;4.72;100.00
67109;BME280;54027;50.786;7.058;2024-02-28T00:25:54;101451.66;;;4.74;100.00
67109;BME280;54027;50.786;7.058;2024-02-28T00:28:19;101446.53;;;4.74;100.00
67109;BME280;54027;50.786;7.058;2024-02-28T00:30:45;101448.97;;;4.69;100.00
67109;BME280;54027;50.786;7.058;2024-02-28T00:33:10;101460.16;;;4.73;100.00
67109;BME280;54027;50.786;7.058;2024-02-28T00:35:35;101464.50;;;4.75;100.00
67109;BME280;54027;50.786;7.058;2024-02-28T00:38:01;101470.47;;;4.74;100.00
67109;BME280;54027;50.786;7.058;2024-02-28T00:40:27;101462.72;;;4.73;100.00
67109;BME280;54027;50.786;7.058;2024-02-28T00:42:54;101467.94;;;4.76;100.00
67109;BME280;54027;50.786;7.058;2024-02-28T00:45:19;101471.34;;;4.76;100.00
67109;BME280;54027;50.786;7.058;2024-02-28T00:47:44;101474.78;;;4.77;100.00
67109;BME280;54027;50.786;7.058;2024-02-28T00:50:10;101468.72;;;4.73;100.00
67109;BME280;54027;50.786;7.058;2024-02-28T00:52:36;101466.25;;;4.76;100.00
67109;BME280;54027;50.786;7.058;2024-02-28T00:55:02;101473.84;;;4.73;100.00
67109;BME280;54027;50.786;7.058;2024-02-28T00:57:28;101476.41;;;4.73;100.00
67109;BME280;54027;50.786;7.058;2024-02-28T00:59:53;101487.47;;;4.72;100.00
67109;BME280;54027;50.786;7.058;2024-02-28T01:02:20;101489.16;;;4.72;100.00
67109;BME280;54027;50.786;7.058;2024-02-28T01:04:45;101486.63;;;4.73;100.00
67109;BME280;54027;50.786;7.058;2024-02-28T01:07:11;101480.63;;;4.71;100.00
67109;BME280;54027;50.786;7.058;2024-02-28T01:09:36;101484.78;;;4.68;100.00
67109;BME280;54027;50.786;7.058;2024-02-28T01:12:01;101484.03;;;4.72;100.00
67109;BME280;54027;50.786;7.058;2024-02-28T01:14:27;101486.66;;;4.75;100.00
67109;BME280;54027;50.786;7.058;2024-02-28T01:16:52;101476.41;;;4.73;100.00
67109;BME280;54027;50.786;7.058;2024-02-28T01:19:17;101486.59;;;4.72;100.00
67109;BME280;54027;50.786;7.058;2024-02-28T01:21:43;101479.84;;;4.74;100.00
67109;BME280;54027;50.786;7.058;2024-02-28T01:24:09;101484.09;;;4.73;100.00
67109;BME280;54027;50.786;7.058;2024-02-28T01:26:34;101484.09;;;4.75;100.00
67109;BME280;54027;50.786;7.058;2024-02-28T01:28:59;101489.22;;;4.75;100.00
67109;BME280;54027;50.786;7.058;2024-02-28T01:31:25;101478.16;;;4.76;100.00
67109;BME280;54027;50.786;7.058;2024-02-28T01:33:50;101474.66;;;4.72;100.00
67109;BME280;54027;50.786;7.058;2024-02-28T01:36:15;101473.03;;;4.76;100.00
67109;BME280;54027;50.786;7.058;2024-02-28T01:38:41;101476.41;;;4.73;100.00
67109;BME280;54027;50.786;7.058;2024-02-28T01:41:06;101470.50;;;4.76;100.00
67109;BME280;54027;50.786;7.058;2024-02-28T01:43:32;101468.72;;;4.73;100.00
67109;BME280;54027;50.786;7.058;2024-02-28T01:46:01;101465.41;;;4.77;100.00
67109;BME280;54027;50.786;7.058;2024-02-28T01:48:28;101454.41;;;4.81;100.00
67109;BME280;54027;50.786;7.058;2024-02-28T01:50:53;101457.81;;;4.80;100.00
67109;BME280;54027;50.786;7.058;2024-02-28T01:53:19;101450.97;;;4.81;100.00
67109;BME280;54027;50.786;7.058;2024-02-28T01:55:45;101463.03;;;4.83;100.00
67109;BME280;54027;50.786;7.058;2024-02-28T01:58:11;101463.84;;;4.84;100.00
67109;BME280;54027;50.786;7.058;2024-02-28T02:00:37;101459.66;;;4.86;100.00
67109;BME280;54027;50.786;7.058;2024-02-28T02:03:03;101454.56;;;4.87;100.00
67109;BME280;54027;50.786;7.058;2024-02-28T02:05:29;101459.69;;;4.87;100.00
67109;BME280;54027;50.786;7.058;2024-02-28T02:07:56;101457.91;;;4.83;100.00
67109;BME280;54027;50.786;7.058;2024-02-28T02:10:22;101453.59;;;4.82;100.00
67109;BME280;54027;50.786;7.058;2024-02-28T02:12:48;101461.34;;;4.85;100.00
67109;BME280;54027;50.786;7.058;2024-02-28T02:15:13;101466.50;;;4.87;100.00
67109;BME280;54027;50.786;7.058;2024-02-28T02:17:39;101466.47;;;4.85;100.00
67109;BME280;54027;50.786;7.058;2024-02-28T02:20:05;101467.34;;;4.86;100.00
67109;BME280;54027;50.786;7.058;2024-02-28T02:22:41;101477.59;;;4.86;100.00
67109;BME280;54027;50.786;7.058;2024-02-28T02:25:07;101467.44;;;4.89;100.00
67109;BME280;54027;50.786;7.058;2024-02-28T02:27:33;101467.38;;;4.87;100.00
67109;BME280;54027;50.786;7.058;2024-02-28T02:29:58;101470.88;;;4.89;100.00
67109;BME280;54027;50.786;7.058;2024-02-28T02:32:23;101477.69;;;4.89;100.00
67109;BME280;54027;50.786;7.058;2024-02-28T02:34:49;101485.34;;;4.89;100.00
67109;BME280;54027;50.786;7.058;2024-02-28T02:37:14;101479.38;;;4.88;100.00
67109;BME280;54027;50.786;7.058;2024-02-28T02:39:39;101471.69;;;4.88;100.00
67109;BME280;54027;50.786;7.058;2024-02-28T02:42:05;101469.13;;;4.90;100.00
67109;BME280;54027;50.786;7.058;2024-02-28T02:44:30;101467.44;;;4.89;100.00
67109;BME280;54027;50.786;7.058;2024-02-28T02:46:56;101464.00;;;4.88;100.00
67109;BME280;54027;50.786;7.058;2024-02-28T02:49:21;101457.09;;;4.86;100.00
67109;BME280;54027;50.786;7.058;2024-02-28T02:51:46;101463.13;;;4.88;100.00
67109;BME280;54027;50.786;7.058;2024-02-28T02:54:12;101462.31;;;4.90;100.00
67109;BME280;54027;50.786;7.058;2024-02-28T02:56:41;101472.50;;;4.87;100.00
67109;BME280;54027;50.786;7.058;2024-02-28T02:59:06;101472.56;;;4.89;100.00
67109;BME280;54027;50.786;7.058;2024-02-28T03:01:31;101465.75;;;4.89;100.00
67109;BME280;54027;50.786;7.058;2024-02-28T03:03:57;101463.03;;;4.85;100.00
67109;BME280;54027;50.786;7.058;2024-02-28T03:06:22;101475.13;;;4.89;100.00
67109;BME280;54027;50.786;7.058;2024-02-28T03:08:49;101475.06;;;4.87;100.00
67109;BME280;54027;50.786;7.058;2024-02-28T03:11:14;101480.09;;;4.84;100.00
67109;BME280;54027;50.786;7.058;2024-02-28T03:13:40;101479.13;;;4.79;100.00
67109;BME280;54027;50.786;7.058;2024-02-28T03:16:06;101478.22;;;4.77;100.00
67109;BME280;54027;50.786;7.058;2024-02-28T03:18:31;101470.53;;;4.77;100.00
67109;BME280;54027;50.786;7.058;2024-02-28T03:20:56;101470.56;;;4.79;100.00
67109;BME280;54027;50.786;7.058;2024-02-28T03:23:22;101477.38;;;4.78;100.00
67109;BME280;54027;50.786;7.058;2024-02-28T03:25:47;101469.78;;;4.81;100.00
67109;BME280;54027;50.786;7.058;2024-02-28T03:28:13;101474.81;;;4.78;100.00
67109;BME280;54027;50.786;7.058;2024-02-28T03:30:38;101476.50;;;4.78;100.00
67109;BME280;54027;50.786;7.058;2024-02-28T03:33:04;101482.41;;;4.75;100.00
67109;BME280;54027;50.786;7.058;2024-02-28T03:35:29;101483.28;;;4.74;100.00
67109;BME280;54027;50.786;7.058;2024-02-28T03:37:54;101481.53;;;4.75;100.00
67109;BME280;54027;50.786;7.058;2024-02-28T03:40:20;101489.38;;;4.79;100.00
67109;BME280;54027;50.786;7.058;2024-02-28T03:42:45;101499.63;;;4.79;100.00
67109;BME280;54027;50.786;7.058;2024-02-28T03:45:11;101497.75;;;4.74;100.00
67109;BME280;54027;50.786;7.058;2024-02-28T03:47:36;101505.56;;;4.78;100.00
67109;BME280;54027;50.786;7.058;2024-02-28T03:50:01;101500.41;;;4.77;100.00
67109;BME280;54027;50.786;7.058;2024-02-28T03:52:29;101502.91;;;4.75;100.00
67109;BME280;54027;50.786;7.058;2024-02-28T03:54:55;101507.16;;;4.75;100.00
67109;BME280;54027;50.786;7.058;2024-02-28T03:57:20;101501.28;;;4.77;100.00
67109;BME280;54027;50.786;7.058;2024-02-28T03:59:45;101504.72;;;4.79;100.00
67109;BME280;54027;50.786;7.058;2024-02-28T04:02:11;101501.31;;;4.79;100.00
67109;BME280;54027;50.786;7.058;2024-02-28T04:04:36;101516.75;;;4.82;100.00
67109;BME280;54027;50.786;7.058;2024-02-28T04:07:01;101510.81;;;4.83;100.00
67109;BME280;54027;50.786;7.058;2024-02-28T04:09:27;101503.16;;;4.84;100.00
67109;BME280;54027;50.786;7.058;2024-02-28T04:11:52;101513.38;;;4.83;100.00
67109;BME280;54027;50.786;7.058;2024-02-28T04:14:18;101509.94;;;4.82;100.00
67109;BME280;54027;50.786;7.058;2024-02-28T04:16:44;101514.25;;;4.83;100.00
67109;BME280;54027;50.786;7.058;2024-02-28T04:19:10;101520.13;;;4.81;100.00
67109;BME280;54027;50.786;7.058;2024-02-28T04:21:36;101525.31;;;4.82;100.00
67109;BME280;54027;50.786;7.058;2024-02-28T04:24:01;101527.88;;;4.84;100.00
67109;BME280;54027;50.786;7.058;2024-02-28T04:26:27;101527.88;;;4.82;100.00
67109;BME280;54027;50.786;7.058;2024-02-28T04:28:52;101526.19;;;4.83;100.00
67109;BME280;54027;50.786;7.058;2024-02-28T04:31:17;101531.31;;;4.83;100.00
67109;BME280;54027;50.786;7.058;2024-02-28T04:33:42;101528.69;;;4.81;100.00
67109;BME280;54027;50.786;7.058;2024-02-28T04:36:08;101528.69;;;4.81;100.00
67109;BME280;54027;50.786;7.058;2024-02-28T04:38:33;101526.97;;;4.80;100.00
67109;BME280;54027;50.786;7.058;2024-02-28T04:40:58;101526.97;;;4.80;100.00
67109;BME280;54027;50.786;7.058;2024-02-28T04:43:24;101532.91;;;4.79;100.00
67109;BME280;54027;50.786;7.058;2024-02-28T04:45:49;101534.50;;;4.76;100.00
67109;BME280;54027;50.786;7.058;2024-02-28T04:48:14;101536.16;;;4.74;100.00
67109;BME280;54027;50.786;7.058;2024-02-28T04:50:40;101535.25;;;4.72;100.00
67109;BME280;54027;50.786;7.058;2024-02-28T04:53:05;101540.44;;;4.75;100.00
67109;BME280;54027;50.786;7.058;2024-02-28T04:55:30;101540.41;;;4.73;100.00
67109;BME280;54027;50.786;7.058;2024-02-28T04:57:56;101554.03;;;4.72;100.00
67109;BME280;54027;50.786;7.058;2024-02-28T05:00:21;101560.91;;;4.73;100.00
67109;BME280;54027;50.786;7.058;2024-02-28T05:02:46;101551.47;;;4.72;100.00
67109;BME280;54027;50.786;7.058;2024-02-28T05:05:12;101554.03;;;4.72;100.00
67109;BME280;54027;50.786;7.058;2024-02-28T05:07:37;101556.56;;;4.71;100.00
67109;BME280;54027;50.786;7.058;2024-02-28T05:10:03;101561.72;;;4.72;100.00
67109;BME280;54027;50.786;7.058;2024-02-28T05:12:28;101575.41;;;4.73;100.00
67109;BME280;54027;50.786;7.058;2024-02-28T05:14:53;101575.41;;;4.73;100.00
67109;BME280;54027;50.786;7.058;2024-02-28T05:17:19;101571.16;;;4.73;100.00
67109;BME280;54027;50.786;7.058;2024-02-28T05:19:44;101571.19;;;4.75;100.00
67109;BME280;54027;50.786;7.058;2024-02-28T05:22:09;101575.47;;;4.74;100.00
67109;BME280;54027;50.786;7.058;2024-02-28T05:24:36;101583.13;;;4.74;100.00
67109;BME280;54027;50.786;7.058;2024-02-28T05:27:02;101586.53;;;4.75;100.00
67109;BME280;54027;50.786;7.058;2024-02-28T05:29:27;101580.59;;;4.76;100.00
67109;BME280;54027;50.786;7.058;2024-02-28T05:31:53;101580.59;;;4.76;100.00
67109;BME280;54027;50.786;7.058;2024-02-28T05:34:18;101579.78;;;4.77;100.00
67109;BME280;54027;50.786;7.058;2024-02-28T05:36:43;101582.44;;;4.80;100.00
67109;BME280;54027;50.786;7.058;2024-02-28T05:39:09;101579.00;;;4.79;100.00
67109;BME280;54027;50.786;7.058;2024-02-28T05:41:34;101579.88;;;4.80;100.00
67109;BME280;54027;50.786;7.058;2024-02-28T05:44:00;101579.81;;;4.78;100.00
67109;BME280;54027;50.786;7.058;2024-02-28T05:46:25;101588.25;;;4.74;100.00
67109;BME280;54027;50.786;7.058;2024-02-28T05:48:50;101587.47;;;4.77;100.00
67109;BME280;54027;50.786;7.058;2024-02-28T05:51:16;101597.75;;;4.78;100.00
67109;BME280;54027;50.786;7.058;2024-02-28T05:53:41;101603.66;;;4.76;100.00
67109;BME280;54027;50.786;7.058;2024-02-28T05:56:08;101601.06;;;4.74;100.00
67109;BME280;54027;50.786;7.058;2024-02-28T05:58:41;101611.16;;;4.70;100.00
67109;BME280;54027;50.786;7.058;2024-02-28T06:01:07;101605.31;;;4.74;100.00
67109;BME280;54027;50.786;7.058;2024-02-28T06:03:33;101598.50;;;4.74;100.00
67109;BME280;54027;50.786;7.058;2024-02-28T06:05:59;101607.88;;;4.74;100.00
67109;BME280;54027;50.786;7.058;2024-02-28T06:08:24;101612.22;;;4.76;100.00
67109;BME280;54027;50.786;7.058;2024-02-28T06:10:50;101608.78;;;4.76;100.00
67109;BME280;54027;50.786;7.058;2024-02-28T06:13:17;101608.69;;;4.73;100.00
67109;BME280;54027;50.786;7.058;2024-02-28T06:15:43;101613.72;;;4.70;100.00
67109;BME280;54027;50.786;7.058;2024-02-28T06:18:08;101624.13;;;4.74;100.00
67109;BME280;54027;50.786;7.058;2024-02-28T06:20:34;101624.06;;;4.73;100.00
67109;BME280;54027;50.786;7.058;2024-02-28T06:22:59;101635.25;;;4.76;100.00
67109;BME280;54027;50.786;7.058;2024-02-28T06:25:25;101638.38;;;4.66;100.00
67109;BME280;54027;50.786;7.058;2024-02-28T06:27:52;101637.66;;;4.72;100.00
67109;BME280;54027;50.786;7.058;2024-02-28T06:30:18;101650.66;;;4.78;100.00
67109;BME280;54027;50.786;7.058;2024-02-28T06:32:44;101643.81;;;4.77;100.00
67109;BME280;54027;50.786;7.058;2024-02-28T06:35:09;101653.09;;;4.73;100.00
67109;BME280;54027;50.786;7.058;2024-02-28T06:37:35;101655.75;;;4.76;100.00
67109;BME280;54027;50.786;7.058;2024-02-28T06:40:02;101650.72;;;4.79;100.00
67109;BME280;54027;50.786;7.058;2024-02-28T06:42:29;101657.69;;;4.85;100.00
67109;BME280;54027;50.786;7.058;2024-02-28T06:44:54;101651.84;;;4.89;100.00
67109;BME280;54027;50.786;7.058;2024-02-28T06:47:20;101655.28;;;4.89;100.00
67109;BME280;54027;50.786;7.058;2024-02-28T06:49:46;101650.22;;;4.92;100.00
67109;BME280;54027;50.786;7.058;2024-02-28T06:52:11;101652.03;;;4.95;100.00
67109;BME280;54027;50.786;7.058;2024-02-28T06:54:37;101648.72;;;4.99;100.00
67109;BME280;54027;50.786;7.058;2024-02-28T06:57:02;101648.78;;;5.02;100.00
67109;BME280;54027;50.786;7.058;2024-02-28T06:59:28;101648.00;;;5.04;100.00
67109;BME280;54027;50.786;7.058;2024-02-28T07:01:53;101649.81;;;5.07;100.00
67109;BME280;54027;50.786;7.058;2024-02-28T07:04:18;101646.56;;;5.14;100.00
67109;BME280;54027;50.786;7.058;2024-02-28T07:06:44;101644.06;;;5.15;100.00
67109;BME280;54027;50.786;7.058;2024-02-28T07:09:10;101642.25;;;5.11;100.00
67109;BME280;54027;50.786;7.058;2024-02-28T07:11:37;101648.41;;;5.18;100.00
67109;BME280;54027;50.786;7.058;2024-02-28T07:14:02;101641.69;;;5.23;100.00
67109;BME280;54027;50.786;7.058;2024-02-28T07:16:31;101640.00;;;5.23;100.00
67109;BME280;54027;50.786;7.058;2024-02-28T07:19:02;101635.88;;;5.29;100.00
67109;BME280;54027;50.786;7.058;2024-02-28T07:21:28;101639.38;;;5.32;100.00
67109;BME280;54027;50.786;7.058;2024-02-28T07:23:55;101641.13;;;5.33;100.00
67109;BME280;54027;50.786;7.058;2024-02-28T07:26:21;101645.56;;;5.40;100.00
67109;BME280;54027;50.786;7.058;2024-02-28T07:28:46;101647.81;;;5.28;100.00
67109;BME280;54027;50.786;7.058;2024-02-28T07:31:23;101655.91;;;5.43;100.00
67109;BME280;54027;50.786;7.058;2024-02-28T07:33:49;101657.63;;;5.43;100.00
67109;BME280;54027;50.786;7.058;2024-02-28T07:36:14;101654.31;;;5.47;100.00
67109;BME280;54027;50.786;7.058;2024-02-28T07:38:41;101657.19;;;5.59;100.00
67109;BME280;54027;50.786;7.058;2024-02-28T07:41:07;101661.50;;;5.60;100.00
67109;BME280;54027;50.786;7.058;2024-02-28T07:43:32;101666.81;;;5.67;100.00
67109;BME280;54027;50.786;7.058;2024-02-28T07:46:08;101671.22;;;5.73;100.00
67109;BME280;54027;50.786;7.058;2024-02-28T07:48:34;101664.38;;;5.72;100.00
67109;BME280;54027;50.786;7.058;2024-02-28T07:51:00;101645.72;;;5.79;100.00
67109;BME280;54027;50.786;7.058;2024-02-28T07:53:26;101635.53;;;5.81;99.35
67109;BME280;54027;50.786;7.058;2024-02-28T07:55:51;101635.31;;;5.73;98.54
67109;BME280;54027;50.786;7.058;2024-02-28T07:58:16;101645.00;;;5.83;99.45
67109;BME280;54027;50.786;7.058;2024-02-28T08:00:42;101657.97;;;5.89;99.62
67109;BME280;54027;50.786;7.058;2024-02-28T08:03:09;101642.59;;;5.91;97.85
67109;BME280;54027;50.786;7.058;2024-02-28T08:05:34;101659.72;;;5.90;98.83
67109;BME280;54027;50.786;7.058;2024-02-28T08:08:05;101663.25;;;5.95;98.71
67109;BME280;54027;50.786;7.058;2024-02-28T08:10:30;101657.16;;;5.90;97.99
67109;BME280;54027;50.786;7.058;2024-02-28T08:12:56;101666.00;;;6.03;98.10
67109;BME280;54027;50.786;7.058;2024-02-28T08:15:21;101650.28;;;5.91;96.30
67109;BME280;54027;50.786;7.058;2024-02-28T08:17:46;101665.91;;;6.00;97.50
67109;BME280;54027;50.786;7.058;2024-02-28T08:20:12;101650.81;;;6.12;97.04
67109;BME280;54027;50.786;7.058;2024-02-28T08:22:37;101668.63;;;6.04;97.35
67109;BME280;54027;50.786;7.058;2024-02-28T08:25:03;101652.06;;;6.27;96.44
67109;BME280;54027;50.786;7.058;2024-02-28T08:27:28;101652.41;;;6.44;95.93
67109;BME280;54027;50.786;7.058;2024-02-28T08:29:53;101634.31;;;6.38;94.47
67109;BME280;54027;50.786;7.058;2024-02-28T08:32:19;101636.13;;;6.42;94.12
67109;BME280;54027;50.786;7.058;2024-02-28T08:34:46;101615.78;;;6.51;91.95
67109;BME280;54027;50.786;7.058;2024-02-28T08:37:12;101631.41;;;6.62;92.31
67109;BME280;54027;50.786;7.058;2024-02-28T08:39:37;101633.44;;;6.76;92.69
67109;BME280;54027;50.786;7.058;2024-02-28T08:42:03;101606.16;;;6.81;90.13
67109;BME280;54027;50.786;7.058;2024-02-28T08:44:28;101625.34;;;7.00;91.08
67109;BME280;54027;50.786;7.058;2024-02-28T08:46:54;101606.81;;;7.15;89.59
67109;BME280;54027;50.786;7.058;2024-02-28T08:49:19;101585.25;;;7.08;87.90
67109;BME280;54027;50.786;7.058;2024-02-28T08:51:44;101589.09;;;6.86;87.84
67109;BME280;54027;50.786;7.058;2024-02-28T08:54:10;101623.00;;;7.11;89.91
67109;BME280;54027;50.786;7.058;2024-02-28T08:56:35;101597.56;;;7.24;87.44
67109;BME280;54027;50.786;7.058;2024-02-28T08:59:00;101597.81;;;6.95;88.02
67109;BME280;54027;50.786;7.058;2024-02-28T09:01:26;101620.84;;;6.88;88.78
67109;BME280;54027;50.786;7.058;2024-02-28T09:03:51;101625.06;;;6.85;88.60
67109;BME280;54027;50.786;7.058;2024-02-28T09:06:16;101639.63;;;6.86;89.48
67109;BME280;54027;50.786;7.058;2024-02-28T09:08:42;101659.38;;;6.88;90.92
67109;BME280;54027;50.786;7.058;2024-02-28T09:11:07;101626.16;;;6.96;89.50
67109;BME280;54027;50.786;7.058;2024-02-28T09:13:33;101626.47;;;7.13;89.87
67109;BME280;54027;50.786;7.058;2024-02-28T09:16:00;101631.59;;;7.11;89.94
67109;BME280;54027;50.786;7.058;2024-02-28T09:18:26;101620.50;;;7.14;90.00
67109;BME280;54027;50.786;7.058;2024-02-28T09:20:51;101630.78;;;7.14;89.47
67109;BME280;54027;50.786;7.058;2024-02-28T09:23:16;101639.59;;;7.25;89.96
67109;BME280;54027;50.786;7.058;2024-02-28T09:25:42;101641.44;;;7.32;89.30
67109;BME280;54027;50.786;7.058;2024-02-28T09:28:07;101626.31;;;7.47;88.31
67109;BME280;54027;50.786;7.058;2024-02-28T09:30:33;101618.13;;;7.71;87.57
67109;BME280;54027;50.786;7.058;2024-02-28T09:32:59;101603.81;;;7.88;86.59
67109;BME280;54027;50.786;7.058;2024-02-28T09:35:24;101599.16;;;7.64;86.78
67109;BME280;54027;50.786;7.058;2024-02-28T09:37:49;101621.16;;;7.49;87.37
67109;BME280;54027;50.786;7.058;2024-02-28T09:40:16;101638.22;;;7.43;87.06
67109;BME280;54027;50.786;7.058;2024-02-28T09:42:41;101619.78;;;7.67;86.42
67109;BME280;54027;50.786;7.058;2024-02-28T09:45:09;101600.75;;;8.12;85.00
67109;BME280;54027;50.786;7.058;2024-02-28T09:47:37;101580.53;;;8.37;83.60
67109;BME280;54027;50.786;7.058;2024-02-28T09:50:03;101549.72;;;8.46;82.13
67109;BME280;54027;50.786;7.058;2024-02-28T09:52:29;101569.25;;;8.29;82.60
67109;BME280;54027;50.786;7.058;2024-02-28T09:54:54;101560.63;;;8.26;81.39
67109;BME280;54027;50.786;7.058;2024-02-28T09:57:20;101585.19;;;8.04;82.87
67109;BME280;54027;50.786;7.058;2024-02-28T09:59:49;101582.56;;;7.99;82.92
67109;BME280;54027;50.786;7.058;2024-02-28T10:02:14;101582.44;;;7.92;82.43
67109;BME280;54027;50.786;7.058;2024-02-28T10:04:42;101618.41;;;7.86;84.53
67109;BME280;54027;50.786;7.058;2024-02-28T10:07:14;101578.28;;;8.01;82.78
67109;BME280;54027;50.786;7.058;2024-02-28T10:09:43;101590.22;;;7.96;83.33
67109;BME280;54027;50.786;7.058;2024-02-28T10:12:09;101598.69;;;7.89;83.26
67109;BME280;54027;50.786;7.058;2024-02-28T10:14:34;101587.72;;;7.99;83.09
67109;BME280;54027;50.786;7.058;2024-02-28T10:17:00;101591.09;;;7.98;82.96
67109;BME280;54027;50.786;7.058;2024-02-28T10:19:25;101574.88;;;8.01;82.24
67109;BME280;54027;50.786;7.058;2024-02-28T10:21:51;101575.56;;;7.91;82.83
67109;BME280;54027;50.786;7.058;2024-02-28T10:24:16;101562.25;;;7.64;82.17
67109;BME280;54027;50.786;7.058;2024-02-28T10:26:44;101589.53;;;7.54;83.47
67109;BME280;54027;50.786;7.058;2024-02-28T10:29:09;101569.09;;;7.62;83.03
67109;BME280;54027;50.786;7.058;2024-02-28T10:31:35;101584.94;;;7.86;83.47
67109;BME280;54027;50.786;7.058;2024-02-28T10:34:02;101544.63;;;7.89;82.23
67109;BME280;54027;50.786;7.058;2024-02-28T10:36:30;101577.91;;;7.77;82.67
67109;BME280;54027;50.786;7.058;2024-02-28T10:38:57;101579.94;;;7.96;83.50
67109;BME280;54027;50.786;7.058;2024-02-28T10:41:25;101552.84;;;8.21;81.61
67109;BME280;54027;50.786;7.058;2024-02-28T10:43:51;101532.31;;;8.27;80.59
67109;BME280;54027;50.786;7.058;2024-02-28T10:46:20;101540.44;;;7.96;81.15
67109;BME280;54027;50.786;7.058;2024-02-28T10:48:46;101544.13;;;8.13;81.36
67109;BME280;54027;50.786;7.058;2024-02-28T10:51:15;101528.13;;;8.35;80.12
67109;BME280;54027;50.786;7.058;2024-02-28T10:53:45;101514.28;;;8.29;79.86
67109;BME280;54027;50.786;7.058;2024-02-28T10:56:14;101525.75;;;8.50;79.42
67109;BME280;54027;50.786;7.058;2024-02-28T10:58:52;101491.59;;;8.68;78.56
67109;BME280;54027;50.786;7.058;2024-02-28T11:01:21;101513.03;;;8.67;79.17
67109;BME280;54027;50.786;7.058;2024-02-28T11:03:48;101519.94;;;8.70;79.62
67109;BME280;54027;50.786;7.058;2024-02-28T11:06:19;101508.00;;;8.76;78.91
67109;BME280;54027;50.786;7.058;2024-02-28T11:08:47;101531.78;;;8.52;79.53
67109;BME280;54027;50.786;7.058;2024-02-28T11:11:19;101527.56;;;8.59;80.32
67109;BME280;54027;50.786;7.058;2024-02-28T11:13:52;101508.91;;;8.78;78.81
67109;BME280;54027;50.786;7.058;2024-02-28T11:18:53;101502.53;;;8.49;77.71
67109;BME280;54027;50.786;7.058;2024-02-28T11:21:18;101547.16;;;8.45;80.31
67109;BME280;54027;50.786;7.058;2024-02-28T11:23:50;101515.50;;;8.56;78.93
67109;BME280;54027;50.786;7.058;2024-02-28T11:26:18;101528.53;;;8.69;79.39
67109;BME280;54027;50.786;7.058;2024-02-28T11:28:46;101491.72;;;8.80;77.69
67109;BME280;54027;50.786;7.058;2024-02-28T11:31:14;101480.59;;;8.86;77.41
67109;BME280;54027;50.786;7.058;2024-02-28T11:33:40;101502.94;;;8.84;79.18
67109;BME280;54027;50.786;7.058;2024-02-28T11:36:06;101492.72;;;8.94;78.04
67109;BME280;54027;50.786;7.058;2024-02-28T11:38:31;101448.00;;;8.94;76.13
67109;BME280;54027;50.786;7.058;2024-02-28T11:41:03;101487.59;;;8.97;77.63
67109;BME280;54027;50.786;7.058;2024-02-28T11:43:31;101432.78;;;9.20;75.65
67109;BME280;54027;50.786;7.058;2024-02-28T11:45:56;101462.56;;;8.87;76.73
67109;BME280;54027;50.786;7.058;2024-02-28T11:48:22;101425.72;;;8.97;75.61
67109;BME280;54027;50.786;7.058;2024-02-28T11:50:48;101433.56;;;9.12;76.28
67109;BME280;54027;50.786;7.058;2024-02-28T11:53:13;101432.59;;;8.98;75.74
67109;BME280;54027;50.786;7.058;2024-02-28T11:55:39;101417.19;;;9.06;74.82
67109;BME280;54027;50.786;7.058;2024-02-28T11:58:10;101403.72;;;9.45;75.26
67109;BME280;54027;50.786;7.058;2024-02-28T12:00:46;101403.88;;;9.66;75.05
67109;BME280;54027;50.786;7.058;2024-02-28T12:03:12;101367.72;;;9.60;72.93
67109;BME280;54027;50.786;7.058;2024-02-28T12:05:38;101386.56;;;9.56;74.03
67109;BME280;54027;50.786;7.058;2024-02-28T12:08:04;101349.59;;;9.52;71.73
67109;BME280;54027;50.786;7.058;2024-02-28T12:10:30;101373.56;;;9.39;73.50
67109;BME280;54027;50.786;7.058;2024-02-28T12:13:00;101378.03;;;9.60;74.15
67109;BME280;54027;50.786;7.058;2024-02-28T12:15:28;101368.47;;;9.45;73.30
67109;BME280;54027;50.786;7.058;2024-02-28T12:17:54;101357.41;;;9.66;73.52
67109;BME280;54027;50.786;7.058;2024-02-28T12:20:19;101356.56;;;9.64;72.76
67109;BME280;54027;50.786;7.058;2024-02-28T12:22:45;101353.13;;;9.70;72.81
67109;BME280;54027;50.786;7.058;2024-02-28T12:25:10;101361.47;;;9.32;72.97
67109;BME280;54027;50.786;7.058;2024-02-28T12:27:36;101370.97;;;9.33;74.16
67109;BME280;54027;50.786;7.058;2024-02-28T12:30:01;101356.38;;;9.41;73.11
67109;BME280;54027;50.786;7.058;2024-02-28T12:32:27;101351.28;;;9.49;73.12
67109;BME280;54027;50.786;7.058;2024-02-28T12:34:52;101349.63;;;9.58;73.22
67109;BME280;54027;50.786;7.058;2024-02-28T12:37:19;101346.97;;;9.51;73.22
67109;BME280;54027;50.786;7.058;2024-02-28T12:39:44;101356.53;;;9.58;73.73
67109;BME280;54027;50.786;7.058;2024-02-28T12:42:09;101353.13;;;9.66;73.10
67109;BME280;54027;50.786;7.058;2024-02-28T12:44:35;101320.47;;;9.73;73.09
67109;BME280;54027;50.786;7.058;2024-02-28T12:47:00;101346.25;;;9.75;74.54
67109;BME280;54027;50.786;7.058;2024-02-28T12:49:25;101327.44;;;10.03;72.39